Time;durP1;ratioP1;P1;durP2;ratioP2;P2;SDS_P1;SDS_P2;PMS_P1;PMS_P2;Temp;Humidity;BMP_temperature;BMP_pressure;BME280_temperature;BME280_humidity;BME280_pressure;Samples;Min_cycle;Max_cycle;Signal;HPM_P1;HPM_P2
2022/03/15 00:02:01;;;;;;;464.95;427.60;;;;;;;9.86;78.67;102363.41;15667927;28;20052;-61
2022/03/15 00:09:36;;;;;;;451.70;414.13;;;;;;;9.83;79.17;102361.22;15697143;28;20041;-59
2022/03/15 00:17:09;;;;;;;474.50;435.23;;;;;;;9.93;78.50;102363.94;15682964;28;20049;-61
2022/03/15 00:24:43;;;;;;;453.63;414.33;;;;;;;9.91;78.85;102343.88;15679431;28;20049;-63
2022/03/15 00:32:17;;;;;;;449.58;412.88;;;;;;;9.85;79.17;102345.03;15662614;28;20053;-63
2022/03/15 00:39:51;;;;;;;438.77;402.63;;;;;;;9.88;78.58;102350.00;15682165;28;20041;-61
2022/03/15 00:47:23;;;;;;;;;;;;;;;9.89;78.26;102345.28;15680758;28;20080;-63
2022/03/15 00:54:57;;;;;;;399.45;369.17;;;;;;;9.61;78.75;102336.53;15664020;28;19920;-63
2022/03/15 01:02:29;;;;;;;380.02;350.77;;;;;;;9.47;78.58;102333.53;15679290;28;20071;-62
2022/03/15 01:10:03;;;;;;;414.35;382.95;;;;;;;9.30;79.08;102326.66;15679682;28;20144;-63
2022/03/15 01:17:35;;;;;;;510.15;467.50;;;;;;;9.19;78.97;102343.41;15679974;28;20387;-63
2022/03/15 01:25:10;;;;;;;474.92;433.23;;;;;;;8.90;78.92;102343.22;15679016;28;20045;-61
2022/03/15 01:32:43;;;;;;;522.78;476.55;;;;;;;8.73;79.17;102342.69;15679341;28;20056;-61
2022/03/15 01:40:17;;;;;;;368.67;339.25;;;;;;;8.52;77.84;102354.97;15660871;28;20148;-61
2022/03/15 01:47:50;;;;;;;446.55;409.48;;;;;;;8.35;77.88;102364.47;15678577;28;20041;-61
2022/03/15 01:55:28;;;;;;;341.05;312.63;;;;;;;8.35;77.60;102369.19;15676518;28;20045;-62
2022/03/15 02:03:04;;;;;;;318.48;293.52;;;;;;;8.15;77.13;102367.19;15677470;28;20499;-60
2022/03/15 02:10:37;;;;;;;371.25;341.08;;;;;;;7.91;77.45;102366.88;15677529;28;20033;-62
2022/03/15 02:18:09;;;;;;;425.02;391.25;;;;;;;7.74;76.87;102367.13;15689793;28;20513;-61
2022/03/15 02:25:43;;;;;;;495.50;455.27;;;;;;;7.50;76.42;102389.00;15676007;28;20059;-62
2022/03/15 02:33:15;;;;;;;408.00;375.08;;;;;;;7.67;77.33;102388.78;15677630;28;20045;-63
2022/03/15 02:40:49;;;;;;;450.80;413.45;;;;;;;7.55;76.63;102393.72;15659131;28;20061;-61
2022/03/15 02:48:21;;;;;;;494.30;453.50;;;;;;;7.26;76.93;102375.81;15676662;28;20041;-62
2022/03/15 02:55:54;;;;;;;491.95;452.67;;;;;;;7.23;76.59;102382.75;15676544;28;20056;-62
2022/03/15 03:03:28;;;;;;;494.27;442.80;;;;;;;7.15;77.26;102386.88;15673332;28;20041;-61
2022/03/15 03:11:03;;;;;;;455.85;411.50;;;;;;;6.73;77.79;102388.84;15674122;28;20063;-62
2022/03/15 03:18:35;;;;;;;;;;;;;;;6.83;77.08;102394.47;15656115;28;20049;-62
2022/03/15 03:26:09;;;;;;;436.65;398.17;;;;;;;6.72;76.36;102410.19;15681568;28;19925;-61
2022/03/15 03:33:41;;;;;;;380.98;344.85;;;;;;;6.60;77.60;102409.56;15684160;28;20075;-62
2022/03/15 03:41:17;;;;;;;493.83;445.15;;;;;;;6.71;78.93;102410.47;15701829;28;20072;-60
2022/03/15 03:48:50;;;;;;;396.30;350.85;;;;;;;6.74;79.00;102407.16;15683025;28;20572;-62
2022/03/15 03:56:24;;;;;;;352.93;316.73;;;;;;;6.62;79.46;102410.97;15658323;28;20478;-62
2022/03/15 04:03:59;;;;;;;361.75;323.92;;;;;;;6.69;80.14;102410.75;15653677;28;20474;-60
2022/03/15 04:11:33;;;;;;;346.02;312.17;;;;;;;6.83;79.72;102411.13;15663076;28;20387;-61
2022/03/15 04:19:06;;;;;;;439.75;378.20;;;;;;;6.85;80.04;102404.19;15623269;28;20517;-61
2022/03/15 04:26:40;;;;;;;396.70;360.35;;;;;;;6.81;80.22;102416.94;15612613;28;20450;-60
2022/03/15 04:34:12;;;;;;;378.02;343.70;;;;;;;6.77;79.58;102407.44;15636969;28;20033;-61
2022/03/15 04:41:46;;;;;;;336.25;301.17;;;;;;;6.64;78.93;102396.81;15637834;28;20044;-61
2022/03/15 04:49:18;;;;;;;378.73;298.10;;;;;;;6.52;78.45;102402.56;15685339;28;20037;-62
2022/03/15 04:56:51;;;;;;;254.32;203.18;;;;;;;6.38;79.37;102400.50;15662133;28;20141;-61
2022/03/15 05:04:23;;;;;;;276.40;206.45;;;;;;;6.44;77.78;102396.66;15680834;28;20111;-60
2022/03/15 05:11:58;;;;;;;1549.63;787.83;;;;;;;6.44;76.47;102402.19;15678792;28;20067;-61
2022/03/15 05:19:30;;;;;;;1999.90;999.90;;;;;;;6.34;77.36;102405.72;15679489;28;20049;-60
2022/03/15 05:27:05;;;;;;;1999.90;999.90;;;;;;;6.28;77.27;102404.84;15691740;28;20141;-62
2022/03/15 05:34:37;;;;;;;1999.90;999.90;;;;;;;6.24;77.66;102394.53;15617009;28;20052;-60
2022/03/15 05:42:12;;;;;;;1999.90;999.90;;;;;;;6.36;78.23;102401.59;15656472;28;20041;-60
2022/03/15 05:49:44;;;;;;;1999.90;999.90;;;;;;;6.65;77.66;102392.94;15675831;28;20134;-60
2022/03/15 05:57:18;;;;;;;1999.90;999.90;;;;;;;6.65;77.04;102406.81;15677616;28;20049;-59
2022/03/15 06:04:50;;;;;;;;;;;;;;;6.78;77.16;102411.09;15688810;28;20119;-60
2022/03/15 06:12:25;;;;;;;1999.90;999.90;;;;;;;6.81;76.31;102391.97;15664970;28;20474;-64
2022/03/15 06:19:57;;;;;;;1999.90;999.90;;;;;;;7.00;76.21;102397.09;15656807;28;20414;-63
2022/03/15 06:27:34;;;;;;;1999.90;999.90;;;;;;;7.21;76.50;102405.25;15674992;28;20045;-64
2022/03/15 06:35:09;;;;;;;1999.90;999.90;;;;;;;7.34;75.66;102401.16;15672752;28;20099;-63
2022/03/15 06:42:43;;;;;;;1999.90;999.90;;;;;;;7.65;75.86;102407.66;15670295;28;20040;-65
2022/03/15 06:50:16;;;;;;;1999.90;999.90;;;;;;;7.84;75.68;102416.34;15673214;28;20041;-62
2022/03/15 06:57:50;;;;;;;1999.90;999.90;;;;;;;8.34;75.33;102421.22;15672955;28;20389;-64
2022/03/15 07:05:24;;;;;;;1999.90;999.90;;;;;;;9.16;74.03;102421.13;15674461;28;20044;-62
2022/03/15 07:12:57;;;;;;;1999.90;999.90;;;;;;;9.97;70.60;102417.19;15673147;28;20048;-65
2022/03/15 07:20:30;;;;;;;1999.90;999.90;;;;;;;10.33;69.84;102417.81;15689164;28;20438;-62
2022/03/15 07:28:03;;;;;;;1999.90;999.90;;;;;;;10.84;69.08;102432.19;15672783;28;20045;-63
2022/03/15 07:35:37;;;;;;;1999.90;999.90;;;;;;;10.28;70.14;102424.25;15673641;28;20064;-63
2022/03/15 07:43:10;;;;;;;1999.90;999.90;;;;;;;11.15;67.97;102434.66;15673796;28;20053;-64
2022/03/15 07:50:43;;;;;;;;;;;;;;;11.71;67.02;102420.88;15673023;28;20091;-62
2022/03/15 07:58:16;;;;;;;1999.90;999.90;;;;;;;11.98;67.20;102419.41;15657052;28;19921;-62
2022/03/15 08:05:48;;;;;;;1999.90;999.90;;;;;;;12.74;63.75;102418.22;15645866;28;20073;-64
2022/03/15 08:13:22;;;;;;;1999.90;999.90;;;;;;;13.75;61.42;102406.19;15637797;28;20045;-61
2022/03/15 08:20:55;;;;;;;;;;;;;;;14.69;59.07;102406.25;15683982;28;20196;-65
2022/03/15 08:28:28;;;;;;;1999.90;999.90;;;;;;;15.18;57.70;102417.59;15681865;28;19927;-63
2022/03/15 08:36:00;;;;;;;1999.90;999.90;;;;;;;14.95;58.31;102406.38;15620657;28;20048;-60
2022/03/15 08:43:35;;;;;;;1999.90;999.90;;;;;;;15.27;58.17;102410.00;15621292;28;20041;-62
2022/03/15 08:51:07;;;;;;;;;;;;;;;16.11;56.22;102401.31;15621198;28;20056;-60
2022/03/15 08:58:41;;;;;;;1999.90;999.90;;;;;;;16.77;54.40;102397.50;15620802;28;19921;-62
2022/03/15 09:06:13;;;;;;;1999.90;999.90;;;;;;;16.33;55.78;102391.06;15649962;28;20125;-62
2022/03/15 09:13:46;;;;;;;1999.90;999.90;;;;;;;17.13;53.60;102394.25;15681562;28;20053;-60
2022/03/15 09:21:19;;;;;;;;;;;;;;;17.37;52.47;102396.47;15646887;28;20057;-62
2022/03/15 09:28:55;;;;;;;1999.90;999.90;;;;;;;16.57;54.88;102397.03;15664405;28;19960;-64
2022/03/15 09:36:27;;;;;;;1999.90;999.90;;;;;;;17.38;54.13;102384.03;15641334;28;20041;-60
2022/03/15 09:44:04;;;;;;;1999.90;999.90;;;;;;;17.40;52.26;102379.69;15679435;28;20401;-62
2022/03/15 09:51:37;;;;;;;1999.90;999.90;;;;;;;18.12;50.26;102375.75;15687249;28;20502;-62
2022/03/15 09:59:14;;;;;;;1999.90;999.90;;;;;;;18.05;51.29;102378.31;15615546;28;20039;-64
2022/03/15 10:06:46;;;;;;;1999.90;999.90;;;;;;;17.69;51.88;102387.38;15620179;28;20111;-63
2022/03/15 10:14:20;;;;;;;1999.90;999.90;;;;;;;18.84;49.21;102370.78;15619211;28;20129;-62
2022/03/15 10:21:54;;;;;;;1999.90;999.90;;;;;;;18.70;48.91;102364.63;15615878;28;20053;-63
2022/03/15 10:29:29;;;;;;;1999.90;999.90;;;;;;;18.62;48.74;102348.53;15652009;28;20048;-63
2022/03/15 10:37:02;;;;;;;1999.90;999.90;;;;;;;19.07;47.85;102340.09;15676464;28;20049;-62
2022/03/15 10:44:37;;;;;;;1999.90;999.90;;;;;;;18.69;47.52;102343.19;15676596;28;20458;-63
2022/03/15 10:52:09;;;;;;;1999.90;999.90;;;;;;;17.85;49.74;102339.59;15675738;28;20482;-64
2022/03/15 10:59:43;;;;;;;1999.90;999.90;;;;;;;17.57;50.37;102336.44;15690734;28;20041;-64
2022/03/15 11:07:16;;;;;;;1999.90;999.90;;;;;;;17.68;49.17;102332.03;15675248;28;20057;-64
2022/03/15 11:14:59;;;;;;;1999.90;999.90;;;;;;;17.09;50.21;102317.09;15674307;28;20041;-63
2022/03/15 11:22:34;;;;;;;1999.90;999.90;;;;;;;18.19;46.91;102321.53;15675170;28;20140;-60
2022/03/15 11:30:18;;;;;;;1999.90;999.90;;;;;;;17.91;48.42;102309.97;15630573;28;20053;-61
2022/03/15 11:37:54;;;;;;;1999.90;999.90;;;;;;;18.26;47.37;102290.72;15612074;28;20609;-61
2022/03/15 11:45:40;;;;;;;1999.90;999.90;;;;;;;18.45;45.49;102284.56;15604390;28;20121;-63
2022/03/15 11:53:39;;;;;;;1999.90;999.90;;;;;;;18.46;43.89;102267.25;15623262;28;20076;-63
2022/03/15 12:01:14;;;;;;;1999.90;999.90;;;;;;;18.59;43.89;102245.47;15663260;28;20038;-63
2022/03/15 12:08:55;;;;;;;1999.90;999.90;;;;;;;17.27;46.74;102236.88;15640930;28;20034;-62
2022/03/15 12:16:35;;;;;;;1999.90;999.90;;;;;;;18.11;45.42;102223.56;15622342;28;20097;-62
2022/03/15 12:24:17;;;;;;;1999.90;999.90;;;;;;;18.16;45.43;102203.56;15677303;28;20049;-62
2022/03/15 12:31:50;;;;;;;1999.90;999.90;;;;;;;18.11;44.59;102192.47;15684075;28;20053;-61
2022/03/15 12:39:24;;;;;;;1999.90;999.90;;;;;;;18.84;42.93;102194.59;15665817;28;20095;-63
2022/03/15 12:46:58;;;;;;;1999.90;999.90;;;;;;;19.13;42.94;102179.38;15682795;28;20475;-63
2022/03/15 12:54:31;;;;;;;1999.90;999.90;;;;;;;19.75;41.33;102166.72;15682066;28;20045;-63
2022/03/15 13:02:05;;;;;;;1999.90;999.90;;;;;;;19.67;40.70;102160.00;15682391;28;20456;-64
2022/03/15 13:09:37;;;;;;;1999.90;999.90;;;;;;;18.73;43.09;102132.88;15672766;28;20076;-65
2022/03/15 13:17:11;;;;;;;1999.90;999.90;;;;;;;17.63;44.25;102120.56;15618274;28;20053;-63
2022/03/15 13:24:43;;;;;;;1999.90;999.90;;;;;;;18.00;43.53;102100.91;15600655;28;20050;-64
2022/03/15 13:32:20;;;;;;;1999.90;999.90;;;;;;;18.08;44.06;102100.81;15619041;28;20057;-65
2022/03/15 13:39:53;;;;;;;1999.90;999.90;;;;;;;17.00;46.55;102077.47;15618802;28;20072;-65
2022/03/15 13:47:30;;;;;;;1999.90;999.90;;;;;;;17.22;44.95;102077.13;15618132;28;20072;-63
2022/03/15 13:55:03;;;;;;;1999.90;999.90;;;;;;;16.90;45.49;102067.44;15615740;28;20055;-62
2022/03/15 14:02:41;;;;;;;1999.90;999.90;;;;;;;16.53;45.35;102055.06;15653194;28;20141;-64
2022/03/15 14:10:18;;;;;;;1999.90;999.90;;;;;;;16.37;47.07;102051.19;15647315;28;20099;-63
2022/03/15 14:17:54;;;;;;;1999.90;999.90;;;;;;;16.06;47.73;102043.91;15659574;28;20041;-63
2022/03/15 14:25:28;;;;;;;1999.90;999.90;;;;;;;16.39;47.84;102027.13;15630968;28;20037;-63
2022/03/15 14:33:07;;;;;;;1999.90;999.90;;;;;;;16.09;47.63;102017.03;15682229;28;20052;-63
2022/03/15 14:40:44;;;;;;;1999.90;999.90;;;;;;;15.57;48.35;102020.03;15666827;28;20083;-63
2022/03/15 14:48:28;;;;;;;1999.90;999.90;;;;;;;15.45;48.12;102005.84;15616550;28;20509;-62
2022/03/15 14:56:03;;;;;;;1999.90;999.90;;;;;;;15.86;48.46;101988.34;15616146;28;20105;-62
2022/03/15 15:03:37;;;;;;;1999.90;999.90;;;;;;;15.71;48.02;101977.63;15614433;28;20077;-64
2022/03/15 15:11:09;;;;;;;1999.90;999.90;;;;;;;15.18;49.20;101973.31;15615303;28;20304;-63
2022/03/15 15:18:44;;;;;;;1999.90;999.90;;;;;;;15.22;49.13;101955.44;15665405;28;20053;-64
2022/03/15 15:26:16;;;;;;;1999.90;999.90;;;;;;;14.47;50.96;101942.78;15688370;28;20136;-63
2022/03/15 15:33:51;;;;;;;1999.90;999.90;;;;;;;14.72;51.33;101936.34;15686884;28;20048;-62
2022/03/15 15:41:23;;;;;;;1999.90;999.90;;;;;;;14.82;51.60;101923.94;15686344;28;20045;-63
2022/03/15 15:49:00;;;;;;;1999.90;999.90;;;;;;;14.49;52.67;101909.59;15683130;28;20421;-64
2022/03/15 15:56:33;;;;;;;1999.90;999.90;;;;;;;14.21;53.51;101911.03;15684327;28;20041;-62
2022/03/15 16:04:08;;;;;;;1999.90;999.90;;;;;;;14.09;53.41;101915.31;15665665;28;20623;-61
2022/03/15 16:11:41;;;;;;;1999.90;999.90;;;;;;;14.22;53.50;101921.13;15660900;28;20041;-64
2022/03/15 16:19:15;;;;;;;1999.90;999.90;;;;;;;14.33;52.94;101923.25;15652509;28;20394;-60
2022/03/15 16:26:47;;;;;;;;;;;;;;;14.31;53.50;101928.38;15667506;28;20041;-61
2022/03/15 16:34:20;;;;;;;1999.90;999.90;;;;;;;14.18;53.59;101923.75;15683122;28;19966;-63
2022/03/15 16:41:52;;;;;;;;;;;;;;;14.33;53.54;101922.44;15685491;28;20175;-65
2022/03/15 16:49:26;;;;;;;1999.90;999.90;;;;;;;13.75;54.47;101913.25;15706911;28;19920;-63
2022/03/15 16:56:58;;;;;;;;;;;;;;;14.12;53.93;101911.03;15682385;28;20578;-64
2022/03/15 17:12:22;;;;;;;1999.90;999.90;;;;;;;13.65;54.96;101898.69;15671158;28;20442;-64
2022/03/15 17:19:56;;;;;;;1999.90;999.90;;;;;;;13.31;56.05;101891.00;15647677;28;20128;-59
2022/03/15 17:27:31;;;;;;;1999.90;999.90;;;;;;;13.39;55.37;101893.84;15672725;28;20045;-62
2022/03/15 17:35:08;;;;;;;1999.90;999.90;;;;;;;13.20;55.57;101905.28;15678338;28;20577;-62
2022/03/15 17:42:41;;;;;;;1999.90;999.90;;;;;;;13.41;55.00;101893.50;15679250;28;20045;-62
2022/03/15 17:50:15;;;;;;;1999.90;999.90;;;;;;;13.51;54.98;101896.00;15678845;28;20059;-61
2022/03/15 17:57:48;;;;;;;1999.90;999.90;;;;;;;13.22;55.26;101894.56;15676970;28;20327;-62
2022/03/15 18:05:23;;;;;;;1999.90;999.90;;;;;;;13.34;55.18;101888.38;15679982;28;20057;-62
2022/03/15 18:12:56;;;;;;;1999.90;999.90;;;;;;;13.27;55.46;101893.63;15677783;28;20045;-61
2022/03/15 18:20:36;;;;;;;1999.90;999.90;;;;;;;13.21;56.00;101892.91;15666469;28;20091;-60
2022/03/15 18:28:10;;;;;;;1999.90;999.90;;;;;;;13.08;56.22;101898.59;15676685;28;20037;-61
2022/03/15 18:35:47;;;;;;;;;;;;;;;13.23;56.31;101898.19;15678558;28;20048;-57
2022/03/15 18:43:24;;;;;;;1999.90;999.90;;;;;;;13.00;57.18;101905.81;15678159;28;20273;-62
2022/03/15 18:51:02;;;;;;;1999.90;999.90;;;;;;;12.96;57.43;101899.19;15675720;23;20041;-61
2022/03/15 18:58:35;;;;;;;1999.90;999.90;;;;;;;12.82;57.56;101901.22;15571011;28;20053;-59
2022/03/15 19:06:11;;;;;;;1999.90;999.90;;;;;;;12.74;58.14;101900.06;15571558;28;20053;-60
2022/03/15 19:13:44;;;;;;;1999.90;999.90;;;;;;;12.65;58.25;101907.56;15578692;28;20137;-62
2022/03/15 19:21:22;;;;;;;1999.90;999.90;;;;;;;12.52;58.80;101900.06;15580037;28;20099;-61
2022/03/15 19:28:55;;;;;;;1999.90;999.90;;;;;;;12.57;58.43;101908.31;15595832;28;20109;-61
2022/03/15 19:36:29;;;;;;;1999.90;999.90;;;;;;;12.57;58.51;101900.75;15595280;28;20060;-62
2022/03/15 19:44:02;;;;;;;1999.90;999.90;;;;;;;12.41;58.69;101894.72;15582106;28;20077;-60
2022/03/15 19:51:35;;;;;;;1999.90;999.90;;;;;;;12.34;58.76;101890.69;15571766;28;20054;-60
2022/03/15 19:59:08;;;;;;;1999.90;999.90;;;;;;;12.15;59.34;101888.03;15601186;28;20037;-57
2022/03/15 20:06:42;;;;;;;1999.90;999.90;;;;;;;12.16;59.10;101889.69;15551301;28;20038;-59
2022/03/15 20:14:15;;;;;;;1999.90;999.90;;;;;;;11.74;59.15;101896.47;15573023;28;20773;-60
2022/03/15 20:21:50;;;;;;;1999.90;999.90;;;;;;;11.92;58.40;101901.16;15584069;28;20053;-59
2022/03/15 20:29:22;;;;;;;1999.90;999.90;;;;;;;11.70;59.05;101898.25;15598026;28;20124;-57
2022/03/15 20:36:56;;;;;;;1999.90;999.90;;;;;;;11.63;58.97;101900.63;15607644;28;20560;-60
2022/03/15 20:44:29;;;;;;;1999.90;999.90;;;;;;;11.52;59.19;101889.66;15638909;28;20123;-56
2022/03/15 20:52:07;;;;;;;1999.90;999.90;;;;;;;11.56;59.49;101887.06;15615311;28;20042;-55
2022/03/15 20:59:42;;;;;;;1999.90;999.90;;;;;;;11.19;60.52;101872.16;15634761;28;20137;-61
2022/03/15 21:07:17;;;;;;;1999.90;999.90;;;;;;;11.51;59.73;101864.81;15618920;28;20049;-59
2022/03/15 21:14:49;;;;;;;1999.90;999.90;;;;;;;11.61;59.47;101872.16;15611438;28;20044;-59
2022/03/15 21:22:24;;;;;;;1999.90;999.90;;;;;;;11.14;61.03;101868.63;15599654;28;20042;-59
2022/03/15 21:29:57;;;;;;;1999.90;999.90;;;;;;;11.51;59.22;101879.63;15635496;28;20133;-61
2022/03/15 21:37:30;;;;;;;1999.90;999.90;;;;;;;11.46;59.21;101873.31;15616073;28;20041;-61
2022/03/15 21:45:02;;;;;;;1999.90;999.90;;;;;;;11.09;59.66;101865.97;15634491;28;20341;-59
2022/03/15 21:52:38;;;;;;;1999.90;999.90;;;;;;;10.96;59.99;101862.84;15618384;28;20133;-60
2022/03/15 22:00:12;;;;;;;1999.90;999.90;;;;;;;10.78;60.19;101869.31;15621359;28;20041;-59
2022/03/15 22:07:55;;;;;;;1999.90;999.90;;;;;;;10.80;59.72;101861.44;15606947;28;20038;-60
2022/03/15 22:15:27;;;;;;;1999.90;999.90;;;;;;;10.96;59.43;101851.66;15612601;28;20064;-60
2022/03/15 22:23:02;;;;;;;1999.90;999.90;;;;;;;10.72;60.22;101862.16;15611648;28;20049;-59
2022/03/15 23:17:28;;;;;;;1999.90;999.90;;;;;;;10.33;59.32;101898.84;15608896;28;20132;-60
2022/03/15 23:25:01;;;;;;;1999.90;999.90;;;;;;;10.14;59.70;101907.16;15604489;28;20056;-59
2022/03/15 23:32:33;;;;;;;1999.90;999.90;;;;;;;9.95;60.10;101917.47;15623140;28;20041;-61
2022/03/15 23:40:09;;;;;;;1999.90;999.90;;;;;;;9.83;60.14;101927.09;15626641;28;20317;-62
2022/03/15 23:47:43;;;;;;;1999.90;999.90;;;;;;;9.68;60.63;101943.19;15662563;28;20048;-60
2022/03/15 23:55:18;;;;;;;1999.90;999.90;;;;;;;9.79;60.01;101939.97;15629178;28;20498;-61
